M I D A S
Marine Information and Data Acquisition System
Tripno 1884 of the Zeeleeuw from 2010-05-18 07:04:42 to 2010-05-18 13:57:27
Back to CruiseResearch ActivitiesStationsMapUnderway DataData graphs

EquipmentUnitsComment
TimeDGPSUTC
LatitudeDGPSDM.mWGS84
LongitudeDGPSDM.mWGS84
HeadingGyrodeg 
SOGDGPSknotsSpeed over ground
COGDGPSdegCourse over ground
DepthEcho soundermeters200 kHz
Missing or incorrect values are displayed as -999
Navigation data collected by the RV Zeeleeuw from 2010-05-18 07:07:35 to 2010-05-18 14:02:46
                                                                                    Next 1000 lines
Time Latitude Longitude Heading SOG COG Depth
2010-05-18 07:07:45 51°13.66 2°55.956 111.4 0.9 287 5.9
2010-05-18 07:07:50 51°13.661 2°55.953 111.3 1.2 293 5.9
2010-05-18 07:07:54 51°13.662 2°55.95 111.2 1.5 291 6
2010-05-18 07:08:00 51°13.663 2°55.946 111.2 1.8 293 6.1
2010-05-18 07:08:05 51°13.665 2°55.942 111.6 2 293 4.9
2010-05-18 07:08:11 51°13.666 2°55.936 112.1 2.2 294 -999
2010-05-18 07:08:17 51°13.668 2°55.93 112.4 2.5 295 -999
2010-05-18 07:08:22 51°13.67 2°55.925 112.6 2.6 295 -999
2010-05-18 07:08:28 51°13.671 2°55.919 112.6 2.7 294 -999
2010-05-18 07:08:33 51°13.673 2°55.913 112.4 2.8 294 -999
2010-05-18 07:08:38 51°13.674 2°55.907 111.7 2.9 292 -999
2010-05-18 07:08:43 51°13.676 2°55.901 110.7 3.1 292 -999
2010-05-18 07:08:49 51°13.678 2°55.893 109.8 3.2 291 -999
2010-05-18 07:08:53 51°13.679 2°55.887 108.9 3.3 290 -999
2010-05-18 07:08:58 51°13.681 2°55.88 108 3.4 290 -999
2010-05-18 07:09:03 51°13.682 2°55.873 107.1 3.4 289 -999
2010-05-18 07:09:08 51°13.684 2°55.866 106.1 3.4 288 -999
2010-05-18 07:09:13 51°13.685 2°55.859 105 3.4 288 -999
2010-05-18 07:09:19 51°13.687 2°55.85 104.2 3.4 287 -999
2010-05-18 07:09:23 51°13.688 2°55.844 103.1 3.5 286 -999
2010-05-18 07:09:28 51°13.689 2°55.837 102.4 3.5 285 -999
2010-05-18 07:09:33 51°13.69 2°55.829 101.4 3.5 285 -999
2010-05-18 07:09:39 51°13.692 2°55.82 100.4 3.6 284 -999
2010-05-18 07:09:44 51°13.693 2°55.812 99 3.6 283 -999
2010-05-18 07:09:48 51°13.694 2°55.806 97.7 3.6 282 -999
2010-05-18 07:09:53 51°13.695 2°55.798 96.4 3.5 281 -999
2010-05-18 07:09:59 51°13.696 2°55.789 95.2 3.5 280 -999
2010-05-18 07:10:04 51°13.697 2°55.782 93.5 3.4 279 -999
2010-05-18 07:10:09 51°13.697 2°55.775 92 3.3 277 -999
2010-05-18 07:10:13 51°13.698 2°55.769 90.6 3.2 277 12.2
2010-05-18 07:10:18 51°13.698 2°55.763 89.6 3 276 -999
2010-05-18 07:10:24 51°13.698 2°55.755 88.6 2.9 276 4.4
2010-05-18 07:10:28 51°13.699 2°55.751 87.7 2.2 275 12.3
2010-05-18 07:10:33 51°13.699 2°55.747 86.5 1.9 274 12.4
2010-05-18 07:10:37 51°13.699 2°55.745 84.5 1.4 279 12.1
2010-05-18 07:10:42 51°13.699 2°55.742 80.5 1.1 277 11.9
2010-05-18 07:10:48 51°13.7 2°55.74 77.5 0.9 284 12
2010-05-18 07:10:53 51°13.7 2°55.739 74 0.7 284 12
2010-05-18 07:10:57 51°13.7 2°55.738 69.8 0.6 295 11.9
2010-05-18 07:11:02 51°13.701 2°55.737 67.2 0.5 306 11.9
2010-05-18 07:11:07 51°13.701 2°55.737 63.5 0.4 328 11.9
2010-05-18 07:11:12 51°13.702 2°55.736 60.2 0.4 351 11.9
2010-05-18 07:11:17 51°13.703 2°55.736 57.5 0.5 359 11.9
2010-05-18 07:11:21 51°13.703 2°55.737 53.2 0.6 11 11.8
2010-05-18 07:11:26 51°13.704 2°55.737 50.3 0.7 14 11.9
2010-05-18 07:11:31 51°13.706 2°55.737 46.5 0.8 14 12.2
2010-05-18 07:11:36 51°13.707 2°55.738 42.4 1 15 12.4
2010-05-18 07:11:41 51°13.708 2°55.738 37.4 1 13 12.6
2010-05-18 07:11:45 51°13.709 2°55.739 33.4 1.2 12 12.4
2010-05-18 07:11:50 51°13.711 2°55.739 30 1.2 9 12.4
2010-05-18 07:11:55 51°13.713 2°55.74 25.8 1.4 8 12.4
2010-05-18 07:12:00 51°13.715 2°55.74 21.6 1.4 5 12.4
2010-05-18 07:12:05 51°13.717 2°55.74 16.7 1.5 3 12.4
2010-05-18 07:12:09 51°13.719 2°55.74 12.5 1.6 359 12.4
2010-05-18 07:12:15 51°13.722 2°55.74 9.2 1.7 357 12.4
2010-05-18 07:12:20 51°13.724 2°55.739 5 1.8 353 12.2
2010-05-18 07:12:25 51°13.727 2°55.739 0.8 1.8 350 12
2010-05-18 07:12:30 51°13.729 2°55.738 356.6 1.9 347 11.7
2010-05-18 07:12:34 51°13.731 2°55.737 352.5 2 344 11.8
2010-05-18 07:12:40 51°13.735 2°55.735 347.5 2.2 338 11.6
2010-05-18 07:12:45 51°13.738 2°55.733 343.2 2.4 337 11.5
2010-05-18 07:12:50 51°13.741 2°55.73 339.3 2.6 333 10.9
2010-05-18 07:12:55 51°13.745 2°55.727 335 3.1 331 10.4
2010-05-18 07:13:00 51°13.749 2°55.722 332.2 3.7 329 10.2
2010-05-18 07:13:05 51°13.755 2°55.717 330.4 4.4 328 10.1
2010-05-18 07:13:10 51°13.761 2°55.711 329.9 5.1 327 10
2010-05-18 07:13:15 51°13.767 2°55.704 329.8 5.6 327 10
2010-05-18 07:13:20 51°13.775 2°55.696 329.6 6.3 327 10.3
2010-05-18 07:13:25 51°13.782 2°55.688 329.1 6.6 326 10.4
2010-05-18 07:13:30 51°13.791 2°55.68 328.6 7.2 326 10.6
2010-05-18 07:13:35 51°13.8 2°55.671 328.3 7.4 327 10.8
2010-05-18 07:13:40 51°13.809 2°55.661 328.6 7.8 328 10.8
2010-05-18 07:13:45 51°13.818 2°55.652 329.4 8 329 10.8
2010-05-18 07:13:49 51°13.826 2°55.645 330.4 8.3 331 10.8
2010-05-18 07:13:55 51°13.839 2°55.634 331.8 8.6 332 10.8
2010-05-18 07:14:00 51°13.85 2°55.626 333.5 8.7 334 10.7
2010-05-18 07:14:05 51°13.861 2°55.618 335.4 8.7 334 10.7
2010-05-18 07:14:10 51°13.872 2°55.61 337.2 8.7 336 10.7
2010-05-18 07:14:15 51°13.883 2°55.602 337.9 8.7 335 10.7
2010-05-18 07:14:20 51°13.893 2°55.593 336.2 8.8 333 10.8
2010-05-18 07:14:25 51°13.904 2°55.583 334.4 8.8 331 10.8
2010-05-18 07:14:29 51°13.913 2°55.575 332.8 8.8 330 10.8
2010-05-18 07:14:35 51°13.925 2°55.563 331.5 8.8 329 10.7
2010-05-18 07:14:40 51°13.935 2°55.553 330.5 8.8 329 10.7
2010-05-18 07:14:45 51°13.946 2°55.543 330 8.8 328 10.7
2010-05-18 07:14:50 51°13.956 2°55.533 330.2 8.8 329 10.7
2010-05-18 07:14:54 51°13.965 2°55.526 331.6 8.8 331 10.8
2010-05-18 07:15:00 51°13.978 2°55.515 333.2 8.8 332 10.6
2010-05-18 07:15:05 51°13.989 2°55.506 334 8.8 332 10.7
2010-05-18 07:15:10 51°14 2°55.497 334.9 8.8 333 10.6
2010-05-18 07:15:15 51°14.01 2°55.488 335.2 8.8 333 10.6
2010-05-18 07:15:20 51°14.021 2°55.479 334.9 8.8 333 10.4
2010-05-18 07:15:25 51°14.032 2°55.47 334.8 8.8 333 10.2
2010-05-18 07:15:30 51°14.043 2°55.461 335.1 8.8 333 9.9
2010-05-18 07:15:35 51°14.054 2°55.453 335.7 8.8 334 10
2010-05-18 07:15:40 51°14.065 2°55.444 336.2 8.9 334 10
2010-05-18 07:15:45 51°14.076 2°55.436 336.7 8.9 334 10.1
2010-05-18 07:15:50 51°14.087 2°55.427 336.8 8.9 334 9.8
2010-05-18 07:15:55 51°14.098 2°55.418 336.3 9 334 9.7
2010-05-18 07:16:00 51°14.11 2°55.409 335.8 9.1 333 10.2
2010-05-18 07:16:05 51°14.121 2°55.399 334.8 9.2 332 10.4
2010-05-18 07:16:09 51°14.13 2°55.392 334 9.3 331 10.2
2010-05-18 07:16:13 51°14.139 2°55.384 334 9.5 333 9.9
2010-05-18 07:16:19 51°14.153 2°55.372 334.6 9.6 333 9.5
2010-05-18 07:16:25 51°14.168 2°55.361 335.6 9.7 334 9.9
2010-05-18 07:16:30 51°14.18 2°55.351 336.2 9.8 333 9.7
2010-05-18 07:16:34 51°14.19 2°55.343 336.2 10 333 10.2
2010-05-18 07:16:40 51°14.205 2°55.331 336.2 10.2 333 10.5
2010-05-18 07:16:45 51°14.218 2°55.32 336.2 10.4 333 10.5
2010-05-18 07:16:50 51°14.231 2°55.309 335.8 10.5 332 10.4
2010-05-18 07:16:54 51°14.241 2°55.3 334.9 10.7 331 10.4
2010-05-18 07:17:00 51°14.257 2°55.285 333.4 11 329 10
2010-05-18 07:17:05 51°14.27 2°55.272 331.9 11.2 328 10.3
2010-05-18 07:17:10 51°14.283 2°55.259 331.3 11.3 328 9.9
2010-05-18 07:17:14 51°14.294 2°55.248 331.1 11.5 328 10.1
2010-05-18 07:17:20 51°14.311 2°55.231 330.9 11.7 328 10.1
2010-05-18 07:17:25 51°14.325 2°55.217 330.6 12 327 9.8
2010-05-18 07:17:30 51°14.339 2°55.202 330 12.2 327 9.7
2010-05-18 07:17:35 51°14.353 2°55.187 329.6 12.2 326 10.1
2010-05-18 07:17:40 51°14.367 2°55.172 329.3 12.3 326 10.3
2010-05-18 07:17:45 51°14.382 2°55.156 329 12.5 326 10.1
2010-05-18 07:17:50 51°14.396 2°55.141 329 12.6 327 10
2010-05-18 07:17:55 51°14.411 2°55.127 330 12.7 329 10.2
2010-05-18 07:18:00 51°14.427 2°55.113 331.7 12.7 331 10
2010-05-18 07:18:05 51°14.442 2°55.1 333.5 12.7 333 10.1
2010-05-18 07:18:10 51°14.458 2°55.088 335.7 12.8 334 10.7
2010-05-18 07:18:14 51°14.471 2°55.079 337.4 12.9 336 10.9
2010-05-18 07:18:20 51°14.491 2°55.065 338.8 13 337 10.8
2010-05-18 07:18:25 51°14.508 2°55.054 340.1 12.9 337 10.5
2010-05-18 07:18:30 51°14.524 2°55.042 340.5 12.9 336 10.4
2010-05-18 07:18:35 51°14.54 2°55.027 337.6 13 329 10.9
2010-05-18 07:18:40 51°14.553 2°55.008 332.3 13.2 320 11.1
2010-05-18 07:18:45 51°14.565 2°54.985 325.4 13.5 311 11.2
2010-05-18 07:18:50 51°14.579 2°54.963 321.6 13.5 313 11.3
2010-05-18 07:18:55 51°14.592 2°54.942 322.6 13.5 316 11.2
2010-05-18 07:19:00 51°14.606 2°54.922 325.5 13.5 318 11
2010-05-18 07:19:05 51°14.62 2°54.903 327.2 13.6 319 11
2010-05-18 07:19:10 51°14.634 2°54.884 328.4 13.5 320 11.3
2010-05-18 07:19:14 51°14.646 2°54.868 329.5 13.6 321 11
2010-05-18 07:19:20 51°14.664 2°54.846 329.6 13.5 321 11.3
2010-05-18 07:19:25 51°14.678 2°54.827 328.9 13.6 321 11.4
2010-05-18 07:19:30 51°14.694 2°54.81 330.4 13.5 326 11.2
2010-05-18 07:19:35 51°14.709 2°54.795 333.5 13.4 328 11.3
2010-05-18 07:19:40 51°14.726 2°54.781 336.8 13.3 331 11.4
2010-05-18 07:19:45 51°14.742 2°54.767 338.7 13.3 332 11.4
2010-05-18 07:19:50 51°14.758 2°54.754 339.8 13.2 333 11.2
2010-05-18 07:19:54 51°14.771 2°54.743 340 13.3 332 11.5
2010-05-18 07:20:00 51°14.791 2°54.726 339.6 13.3 332 11.2
2010-05-18 07:20:05 51°14.807 2°54.712 338.7 13.3 331 11.2
2010-05-18 07:20:10 51°14.823 2°54.697 337.5 13.3 330 11.1
2010-05-18 07:20:15 51°14.839 2°54.682 336 13.3 329 11.3
2010-05-18 07:20:20 51°14.855 2°54.666 334.4 13.4 327 11
2010-05-18 07:20:25 51°14.871 2°54.65 334 13.4 328 11.2
2010-05-18 07:20:30 51°14.886 2°54.634 333.3 13.4 326 11.4
2010-05-18 07:20:34 51°14.899 2°54.621 332.9 13.4 328 11.2
2010-05-18 07:20:40 51°14.917 2°54.602 332.8 13.4 326 11.2
2010-05-18 07:20:45 51°14.933 2°54.586 332.7 13.4 327 11
2010-05-18 07:20:50 51°14.948 2°54.569 332.5 13.4 326 9.3
2010-05-18 07:20:55 51°14.963 2°54.553 331.8 13.2 326 9.6
2010-05-18 07:21:00 51°14.978 2°54.537 331.4 13.1 326 9.4
2010-05-18 07:21:05 51°14.993 2°54.52 330.9 13.1 326 9.3
2010-05-18 07:21:10 51°15.008 2°54.504 330.6 13.2 326 9.5
2010-05-18 07:21:14 51°15.021 2°54.49 330.4 13.3 325 9.6
2010-05-18 07:21:20 51°15.039 2°54.47 330.3 13.4 325 9.4
2010-05-18 07:21:25 51°15.054 2°54.453 330.3 13.4 326 9.3
2010-05-18 07:21:30 51°15.07 2°54.436 330.3 13.4 325 9.4
2010-05-18 07:21:35 51°15.085 2°54.419 330.3 13.5 326 9.3
2010-05-18 07:21:40 51°15.1 2°54.402 330.3 13.5 325 9.3
2010-05-18 07:21:45 51°15.116 2°54.386 330.4 13.4 325 9.2
2010-05-18 07:21:50 51°15.131 2°54.369 330.2 13.4 325 9.4
2010-05-18 07:21:55 51°15.147 2°54.352 330.3 13.5 326 9.5
2010-05-18 07:22:00 51°15.162 2°54.335 330.4 13.6 326 9.3
2010-05-18 07:22:05 51°15.178 2°54.317 330.3 13.6 325 9.4
2010-05-18 07:22:10 51°15.193 2°54.3 329.6 13.6 325 9.5
2010-05-18 07:22:15 51°15.208 2°54.282 329 13.6 324 9.5
2010-05-18 07:22:20 51°15.223 2°54.264 328.4 13.7 323 9.5
2010-05-18 07:22:25 51°15.238 2°54.245 327.9 13.7 323 9.5
2010-05-18 07:22:30 51°15.254 2°54.227 327.6 13.7 323 9.6
2010-05-18 07:22:35 51°15.269 2°54.208 327.1 13.7 322 9.4
2010-05-18 07:22:40 51°15.283 2°54.19 326.5 13.7 322 9.6
2010-05-18 07:22:45 51°15.298 2°54.171 326.1 13.8 321 9.7
2010-05-18 07:22:50 51°15.313 2°54.152 325.9 13.8 321 9.6
2010-05-18 07:22:55 51°15.328 2°54.133 325.9 13.8 322 9.8
2010-05-18 07:23:14 51°15.385 2°54.061 326.4 13.8 322 9.8
2010-05-18 07:23:20 51°15.404 2°54.039 326.6 13.8 322 9.9
2010-05-18 07:23:34 51°15.446 2°53.987 326.9 13.9 322 10
2010-05-18 07:23:39 51°15.461 2°53.968 326.9 13.9 322 10.1
2010-05-18 07:25:11 51°15.731 2°53.607 326.2 13.7 320 11.1
2010-05-18 07:26:15 51°15.918 2°53.357 326.7 13.6 320 11.5
2010-05-18 07:26:20 51°15.933 2°53.338 326.5 13.7 320 11
2010-05-18 07:26:25 51°15.947 2°53.319 326.4 13.7 320 11.1
2010-05-18 07:26:30 51°15.962 2°53.299 326.3 13.7 320 11.2
2010-05-18 07:26:34 51°15.974 2°53.284 326.3 13.7 320 11.3
2010-05-18 07:26:40 51°15.991 2°53.261 326.6 13.6 322 11.3
2010-05-18 07:26:45 51°16.007 2°53.244 328.7 13.6 325 11.4
2010-05-18 07:26:50 51°16.023 2°53.226 329.9 13.7 323 11.6
2010-05-18 07:26:55 51°16.039 2°53.212 332.5 13.6 330 11.3
2010-05-18 07:27:00 51°16.055 2°53.195 334 13.6 328 11.2
2010-05-18 07:27:05 51°16.071 2°53.182 335.5 13.5 332 11.5
2010-05-18 07:27:10 51°16.088 2°53.167 336.8 13.6 330 11.4
2010-05-18 07:27:14 51°16.101 2°53.156 337.6 13.5 333 11.5
2010-05-18 07:27:20 51°16.121 2°53.139 338.6 13.6 333 11.2
2010-05-18 07:27:25 51°16.138 2°53.127 339.3 13.6 334 11.3
2010-05-18 07:27:30 51°16.155 2°53.113 339.8 13.6 334 11.5
2010-05-18 07:27:35 51°16.172 2°53.101 340.5 13.6 335 11.5
2010-05-18 07:27:40 51°16.189 2°53.088 340.7 13.6 335 11.6
2010-05-18 07:27:45 51°16.207 2°53.076 341.1 13.6 336 11.4
2010-05-18 07:27:50 51°16.224 2°53.063 340.9 13.6 334 11.4
2010-05-18 07:27:55 51°16.241 2°53.05 340.7 13.6 336 11.6
2010-05-18 07:28:00 51°16.258 2°53.037 340.7 13.6 334 11.6
2010-05-18 07:28:05 51°16.275 2°53.027 341.8 13.6 339 11.5
2010-05-18 07:28:10 51°16.293 2°53.014 343.1 13.6 337 11.5
2010-05-18 07:28:14 51°16.307 2°53.006 343.9 13.6 340 11.5
2010-05-18 07:28:20 51°16.328 2°52.993 344.3 13.6 338 11.4
2010-05-18 07:28:25 51°16.346 2°52.983 345.2 13.6 340 11.6
2010-05-18 07:28:30 51°16.363 2°52.973 345.6 13.6 340 11.3
2010-05-18 07:28:35 51°16.381 2°52.962 345.6 13.6 340 11.4
2010-05-18 07:28:40 51°16.399 2°52.952 345.6 13.6 340 11.5
2010-05-18 07:28:45 51°16.416 2°52.942 345.9 13.6 341 11.4
2010-05-18 07:28:50 51°16.434 2°52.932 346.1 13.6 340 11.3
2010-05-18 07:28:55 51°16.452 2°52.922 345.9 13.6 340 11.4
2010-05-18 07:29:00 51°16.47 2°52.911 345.6 13.6 340 11.4
2010-05-18 07:29:05 51°16.487 2°52.901 345.4 13.6 340 11
2010-05-18 07:29:10 51°16.505 2°52.89 345.4 13.6 340 11.1
2010-05-18 07:29:14 51°16.519 2°52.882 345.6 13.6 339 11.3
2010-05-18 07:29:20 51°16.54 2°52.869 345.4 13.6 340 11.1
2010-05-18 07:29:25 51°16.558 2°52.859 345.2 13.6 339 10.9
2010-05-18 07:29:30 51°16.575 2°52.849 345.4 13.5 340 10.9
2010-05-18 07:29:35 51°16.593 2°52.838 345.5 13.6 340 10.8
2010-05-18 07:29:40 51°16.611 2°52.828 345.5 13.6 340 10.8
2010-05-18 07:29:45 51°16.628 2°52.817 345.4 13.6 340 10.7
2010-05-18 07:29:50 51°16.646 2°52.807 345.3 13.6 340 10.7
2010-05-18 07:29:55 51°16.664 2°52.797 345.3 13.5 340 10.4
2010-05-18 07:30:00 51°16.681 2°52.786 345.2 13.6 340 10.6
2010-05-18 07:30:05 51°16.699 2°52.776 345.1 13.6 340 10.2
2010-05-18 07:30:10 51°16.717 2°52.766 345.2 13.5 340 10.1
2010-05-18 07:30:14 51°16.731 2°52.758 345.2 13.5 340 9.7
2010-05-18 07:30:20 51°16.752 2°52.745 345.3 13.5 340 9.4
2010-05-18 07:30:25 51°16.77 2°52.735 345.5 13.4 340 9.3
2010-05-18 07:30:30 51°16.787 2°52.725 345 13.4 339 9.2
2010-05-18 07:30:35 51°16.804 2°52.715 344.9 13.4 340 9.2
2010-05-18 07:30:40 51°16.821 2°52.704 344.8 13.4 339 9.1
2010-05-18 07:30:45 51°16.839 2°52.694 344.6 13.4 339 8.9
2010-05-18 07:30:50 51°16.856 2°52.683 344.6 13.4 339 9
2010-05-18 07:30:55 51°16.874 2°52.673 344.2 13.4 339 8.9
2010-05-18 07:31:00 51°16.891 2°52.662 344.2 13.4 339 9.1
2010-05-18 07:31:05 51°16.908 2°52.651 344.2 13.5 339 9.2
2010-05-18 07:31:10 51°16.926 2°52.641 344.3 13.5 339 9.2
2010-05-18 07:31:15 51°16.944 2°52.63 344.3 13.5 339 9.2
2010-05-18 07:31:20 51°16.961 2°52.619 344.4 13.6 339 9.5
2010-05-18 07:31:25 51°16.979 2°52.609 344.7 13.6 340 9.2
2010-05-18 07:31:30 51°16.997 2°52.599 344.9 13.6 340 9.5
2010-05-18 07:31:35 51°17.014 2°52.588 345 13.6 340 9.2
2010-05-18 07:31:40 51°17.032 2°52.578 345 13.6 340 9.1
2010-05-18 07:31:45 51°17.05 2°52.567 344.8 13.6 339 9
2010-05-18 07:31:50 51°17.067 2°52.557 344.8 13.5 340 8.9
2010-05-18 07:31:55 51°17.085 2°52.546 344.6 13.5 339 9
2010-05-18 07:32:00 51°17.102 2°52.536 344.5 13.6 340 9.1
2010-05-18 07:32:05 51°17.12 2°52.525 344.5 13.6 339 9.2
2010-05-18 07:32:10 51°17.138 2°52.514 344.2 13.6 339 9.1
2010-05-18 07:32:14 51°17.152 2°52.506 344.4 13.6 339 9.3
2010-05-18 07:32:20 51°17.173 2°52.493 344.6 13.7 340 9.2
2010-05-18 07:32:25 51°17.191 2°52.482 344.5 13.7 340 9.5
2010-05-18 07:32:30 51°17.209 2°52.472 344.8 13.7 340 9.4
2010-05-18 07:32:35 51°17.226 2°52.461 344.8 13.7 339 9.5
2010-05-18 07:32:40 51°17.244 2°52.451 344.8 13.7 340 9.6
2010-05-18 07:32:45 51°17.262 2°52.441 344.9 13.7 340 9.5
2010-05-18 07:32:50 51°17.28 2°52.431 344.9 13.7 340 9.8
2010-05-18 07:32:55 51°17.298 2°52.42 344.9 13.7 340 9.7
2010-05-18 07:33:00 51°17.316 2°52.41 344.8 13.7 340 9.6
2010-05-18 07:33:05 51°17.333 2°52.399 344.5 13.7 339 9.8
2010-05-18 07:33:10 51°17.351 2°52.388 344.1 13.7 339 9.8
2010-05-18 07:33:15 51°17.369 2°52.377 344.1 13.7 339 9.6
2010-05-18 07:33:20 51°17.386 2°52.367 343.9 13.7 339 9.8
2010-05-18 07:33:25 51°17.404 2°52.356 344 13.7 339 9.9
2010-05-18 07:33:30 51°17.422 2°52.345 344.1 13.7 339 9.8
2010-05-18 07:33:35 51°17.44 2°52.335 344.3 13.7 340 9.7
2010-05-18 07:33:40 51°17.457 2°52.324 344.5 13.7 340 9.6
2010-05-18 07:33:45 51°17.475 2°52.314 344.6 13.6 340 9.7
2010-05-18 07:33:50 51°17.493 2°52.303 344.6 13.6 340 9.9
2010-05-18 07:33:55 51°17.511 2°52.293 344.3 13.7 340 9.9
2010-05-18 07:34:00 51°17.528 2°52.282 344.2 13.7 339 9.8
2010-05-18 07:34:05 51°17.546 2°52.272 344.3 13.6 340 9.9
2010-05-18 07:34:10 51°17.564 2°52.261 344.5 13.7 339 10.1
2010-05-18 07:34:14 51°17.578 2°52.253 344.2 13.7 340 10.4
2010-05-18 07:34:20 51°17.6 2°52.24 344.3 13.7 340 10.4
2010-05-18 07:34:25 51°17.617 2°52.23 344.4 13.7 340 10.7
2010-05-18 07:34:30 51°17.635 2°52.219 344.5 13.7 339 10.8
2010-05-18 07:34:35 51°17.653 2°52.208 344.1 13.7 339 10.7
2010-05-18 07:34:40 51°17.671 2°52.197 344.1 13.7 339 10.7
2010-05-18 07:34:45 51°17.688 2°52.187 343.9 13.7 339 10.6
2010-05-18 07:34:50 51°17.706 2°52.176 344.1 13.7 339 10.6
2010-05-18 07:34:54 51°17.72 2°52.167 344.2 13.6 340 10.7
2010-05-18 07:35:00 51°17.742 2°52.155 344.3 13.6 340 10.4
2010-05-18 07:35:05 51°17.759 2°52.145 344.6 13.6 340 10.5
2010-05-18 07:35:10 51°17.777 2°52.134 344.6 13.6 340 10.5
2010-05-18 07:35:15 51°17.795 2°52.124 344.3 13.7 339 10.5
2010-05-18 07:35:20 51°17.812 2°52.113 344.1 13.6 340 10.5
2010-05-18 07:35:25 51°17.83 2°52.103 344 13.6 340 10.7
2010-05-18 07:35:30 51°17.848 2°52.092 344.1 13.6 340 10.5
2010-05-18 07:35:34 51°17.862 2°52.084 344.3 13.6 340 10.6
2010-05-18 07:35:40 51°17.883 2°52.071 344.4 13.7 340 10.6
2010-05-18 07:35:45 51°17.901 2°52.061 344.5 13.6 340 10.4
2010-05-18 07:35:50 51°17.919 2°52.05 344.2 13.6 339 10.7
2010-05-18 07:35:55 51°17.937 2°52.04 344.2 13.6 340 10.3
2010-05-18 07:36:00 51°17.954 2°52.029 344.2 13.7 339 10.4
2010-05-18 07:36:05 51°17.972 2°52.018 343.9 13.6 339 10.4
2010-05-18 07:36:10 51°17.99 2°52.008 344.2 13.6 340 10.3
2010-05-18 07:36:14 51°18.004 2°51.999 344.3 13.6 339 10.2
2010-05-18 07:36:20 51°18.025 2°51.986 344.3 13.6 338 10
2010-05-18 07:36:25 51°18.042 2°51.975 344 13.5 339 9.8
2010-05-18 07:36:30 51°18.06 2°51.964 344.1 13.5 339 9.9
2010-05-18 07:36:35 51°18.077 2°51.953 344.2 13.6 338 10.3
2010-05-18 07:36:40 51°18.095 2°51.941 344.3 13.6 338 10.1
2010-05-18 07:36:45 51°18.112 2°51.93 344.2 13.6 338 10.2
2010-05-18 07:36:50 51°18.13 2°51.919 343.9 13.7 338 10
2010-05-18 07:36:55 51°18.147 2°51.908 344.1 13.7 338 10
2010-05-18 07:37:00 51°18.165 2°51.896 344.1 13.6 338 10.4
2010-05-18 07:37:05 51°18.183 2°51.885 344.2 13.7 338 10.5
2010-05-18 07:37:10 51°18.2 2°51.874 344.3 13.7 338 10.3
2010-05-18 07:37:14 51°18.214 2°51.865 344.6 13.7 338 10.4
2010-05-18 07:37:20 51°18.236 2°51.851 344.4 13.7 339 10.3
2010-05-18 07:37:25 51°18.253 2°51.84 344.6 13.7 338 10.6
2010-05-18 07:37:30 51°18.271 2°51.829 344.7 13.7 339 10.7
2010-05-18 07:37:35 51°18.289 2°51.818 344.6 13.7 338 10.8
2010-05-18 07:37:40 51°18.306 2°51.807 344.5 13.7 339 10.8
2010-05-18 07:37:45 51°18.324 2°51.795 344.5 13.8 338 10.9
2010-05-18 07:37:50 51°18.342 2°51.784 344.5 13.8 339 11.1
2010-05-18 07:37:55 51°18.36 2°51.773 344.6 13.8 339 11.3
2010-05-18 07:38:00 51°18.377 2°51.762 344.8 13.7 339 11.2
2010-05-18 07:38:05 51°18.395 2°51.751 344.8 13.8 338 11.2
2010-05-18 07:38:10 51°18.413 2°51.74 344.7 13.8 339 11.4
2010-05-18 07:38:14 51°18.427 2°51.731 344.5 13.7 338 11.6
2010-05-18 07:38:20 51°18.448 2°51.717 344.1 13.8 338 11.7
2010-05-18 07:38:25 51°18.466 2°51.705 344.1 13.7 337 11.6
2010-05-18 07:38:30 51°18.483 2°51.693 343.9 13.7 337 11.9
2010-05-18 07:38:34 51°18.497 2°51.684 343.8 13.7 337 12.1
2010-05-18 07:38:40 51°18.518 2°51.67 344 13.7 337 12
2010-05-18 07:38:45 51°18.536 2°51.658 344 13.7 337 12.2
2010-05-18 07:38:50 51°18.553 2°51.647 344.1 13.6 337 12.5
2010-05-18 07:38:55 51°18.571 2°51.635 344.1 13.7 337 12.6
2010-05-18 07:39:00 51°18.588 2°51.623 344.1 13.6 337 12.5
2010-05-18 07:39:05 51°18.606 2°51.611 344.1 13.7 337 12.8
2010-05-18 07:39:10 51°18.623 2°51.599 344.1 13.7 337 12.7
2010-05-18 07:39:14 51°18.637 2°51.59 344.1 13.7 337 12.7
2010-05-18 07:39:20 51°18.658 2°51.576 344.1 13.6 337 13.1
2010-05-18 07:39:25 51°18.676 2°51.564 344.1 13.7 337 13.1
2010-05-18 07:39:30 51°18.693 2°51.553 344.1 13.6 337 13.2
2010-05-18 07:39:35 51°18.711 2°51.541 343.9 13.7 337 13.3
2010-05-18 07:39:40 51°18.729 2°51.529 343.9 13.7 337 13.3
2010-05-18 07:39:45 51°18.746 2°51.518 343.9 13.7 337 13.5
2010-05-18 07:39:50 51°18.764 2°51.506 343.9 13.7 337 13.5
2010-05-18 07:39:55 51°18.781 2°51.494 343.9 13.7 337 13.5
2010-05-18 07:40:00 51°18.799 2°51.482 343.8 13.7 337 13.8
2010-05-18 07:40:05 51°18.816 2°51.47 343.9 13.7 337 13.6
2010-05-18 07:40:10 51°18.834 2°51.459 344.1 13.6 338 13.9
2010-05-18 07:40:14 51°18.848 2°51.45 344.6 13.6 338 13.9
2010-05-18 07:40:20 51°18.869 2°51.437 344.7 13.6 338 13.9
2010-05-18 07:40:25 51°18.886 2°51.425 344.5 13.6 337 14.1
2010-05-18 07:40:30 51°18.903 2°51.414 344.1 13.6 338 13.9
2010-05-18 07:40:35 51°18.921 2°51.402 344.1 13.6 337 14.3
2010-05-18 07:40:40 51°18.938 2°51.39 344.1 13.6 337 14.3
2010-05-18 07:40:45 51°18.956 2°51.379 344.1 13.6 337 14
2010-05-18 07:40:50 51°18.973 2°51.367 344 13.6 337 14.2
2010-05-18 07:40:55 51°18.99 2°51.356 344 13.5 337 13.9
2010-05-18 07:41:00 51°19.008 2°51.344 343.9 13.6 337 14
2010-05-18 07:41:05 51°19.025 2°51.333 344.1 13.6 338 13.8
2010-05-18 07:41:10 51°19.043 2°51.321 344.1 13.6 337 13.9
2010-05-18 07:41:14 51°19.057 2°51.313 344.1 13.6 338 14
2010-05-18 07:41:20 51°19.078 2°51.299 344.2 13.6 338 14.1
2010-05-18 07:41:25 51°19.095 2°51.288 344.2 13.6 338 14.3
2010-05-18 07:41:30 51°19.113 2°51.277 344.4 13.7 338 14.1
2010-05-18 07:41:35 51°19.13 2°51.265 344.1 13.6 338 14.3
2010-05-18 07:41:40 51°19.147 2°51.254 344.1 13.5 337 14.6
2010-05-18 07:41:45 51°19.165 2°51.242 343.9 13.6 337 14.7
2010-05-18 07:41:50 51°19.182 2°51.231 344 13.5 337 14.5
2010-05-18 07:41:55 51°19.2 2°51.219 344 13.6 337 14.6
2010-05-18 07:42:00 51°19.217 2°51.208 344 13.6 338 14.4
2010-05-18 07:42:05 51°19.234 2°51.197 344.3 13.5 338 14.4
2010-05-18 07:42:10 51°19.252 2°51.186 344.5 13.5 339 14.6
2010-05-18 07:42:15 51°19.269 2°51.175 344.6 13.5 338 14.5
2010-05-18 07:42:20 51°19.287 2°51.164 344.8 13.5 339 14.3
2010-05-18 07:42:25 51°19.304 2°51.153 344.8 13.5 338 14.3
2010-05-18 07:42:30 51°19.322 2°51.143 344.8 13.5 339 14.5
2010-05-18 07:42:35 51°19.339 2°51.132 344.9 13.5 339 14.4
2010-05-18 07:42:40 51°19.356 2°51.12 344.4 13.5 338 14.4
2010-05-18 07:42:45 51°19.374 2°51.109 344.2 13.5 338 14.3
2010-05-18 07:42:50 51°19.391 2°51.098 344.1 13.5 338 14.4
2010-05-18 07:42:55 51°19.409 2°51.087 344.1 13.6 338 14.4
2010-05-18 07:43:00 51°19.426 2°51.076 344.1 13.6 338 14.2
2010-05-18 07:43:05 51°19.444 2°51.065 344 13.6 338 14.2
2010-05-18 07:43:10 51°19.461 2°51.053 343.9 13.6 338 14.2
2010-05-18 07:43:14 51°19.475 2°51.044 344 13.5 338 14.1
2010-05-18 07:43:20 51°19.496 2°51.031 344.1 13.6 338 13.7
2010-05-18 07:43:25 51°19.513 2°51.02 344.3 13.5 338 13.3
2010-05-18 07:43:30 51°19.531 2°51.009 344.5 13.5 338 13.4
2010-05-18 07:43:35 51°19.548 2°50.997 344.6 13.6 338 13.1
2010-05-18 07:43:40 51°19.566 2°50.986 344.5 13.5 338 13.2
2010-05-18 07:43:45 51°19.583 2°50.975 344.7 13.5 338 12.8
2010-05-18 07:43:50 51°19.601 2°50.964 344.6 13.5 338 12.8
2010-05-18 07:43:55 51°19.618 2°50.953 344.7 13.5 339 12.7
2010-05-18 07:44:00 51°19.635 2°50.942 344.7 13.5 338 12.2
2010-05-18 07:44:05 51°19.653 2°50.931 344.5 13.5 339 12.2
2010-05-18 07:44:10 51°19.67 2°50.919 344.3 13.6 337 11.9
2010-05-18 07:44:14 51°19.684 2°50.91 344.2 13.5 338 11.4
2010-05-18 07:44:20 51°19.705 2°50.897 344.2 13.6 337 11.6
2010-05-18 07:44:25 51°19.722 2°50.885 344.1 13.6 338 11.5
2010-05-18 07:44:30 51°19.74 2°50.874 344.2 13.6 338 11.3
2010-05-18 07:44:35 51°19.757 2°50.864 344.5 13.6 338 11.8
2010-05-18 07:44:40 51°19.774 2°50.853 344.6 13.6 338 11.9
2010-05-18 07:44:45 51°19.792 2°50.841 344.7 13.7 338 11.8
2010-05-18 07:44:50 51°19.809 2°50.83 344.6 13.6 338 11.7
2010-05-18 07:44:55 51°19.827 2°50.819 344.6 13.7 338 11.7
2010-05-18 07:45:00 51°19.845 2°50.807 344.6 13.6 338 11.9
2010-05-18 07:45:05 51°19.862 2°50.796 344.3 13.6 338 11.8
2010-05-18 07:45:10 51°19.88 2°50.784 344.2 13.7 338 11.7
2010-05-18 07:45:14 51°19.894 2°50.775 344.1 13.7 338 11.9
2010-05-18 07:45:20 51°19.915 2°50.761 344.2 13.7 337 12
2010-05-18 07:45:25 51°19.933 2°50.749 343.9 13.7 337 11.9
2010-05-18 07:45:30 51°19.95 2°50.737 343.9 13.7 337 12.1
2010-05-18 07:45:34 51°19.964 2°50.728 343.7 13.7 337 12.5
2010-05-18 07:45:40 51°19.985 2°50.714 343.8 13.7 337 12.6
2010-05-18 07:45:45 51°20.003 2°50.702 344 13.8 337 12.8
2010-05-18 07:45:50 51°20.021 2°50.69 344.1 13.8 338 13
2010-05-18 07:45:55 51°20.038 2°50.679 344.1 13.8 338 13.7
2010-05-18 07:46:00 51°20.056 2°50.667 344.3 13.8 338 13.8
2010-05-18 07:46:05 51°20.074 2°50.655 344.5 13.8 338 14
2010-05-18 07:46:10 51°20.091 2°50.644 344.4 13.8 338 14.4
2010-05-18 07:46:15 51°20.109 2°50.632 344.4 13.8 338 14.5
2010-05-18 07:46:20 51°20.127 2°50.621 344.6 13.8 338 14.7
2010-05-18 07:46:25 51°20.145 2°50.609 344.4 13.8 337 14.6
2010-05-18 07:46:30 51°20.162 2°50.597 344.3 13.8 338 14.6
2010-05-18 07:46:34 51°20.176 2°50.588 344.1 13.7 337 14.6
2010-05-18 07:46:40 51°20.197 2°50.574 344.1 13.8 337 15.2
2010-05-18 07:46:45 51°20.215 2°50.562 344 13.7 337 15.1
2010-05-18 07:46:50 51°20.232 2°50.55 344 13.7 338 14.8
2010-05-18 07:46:55 51°20.25 2°50.539 344.2 13.7 338 15.1
2010-05-18 07:47:00 51°20.267 2°50.528 344.5 13.7 338 15.6
2010-05-18 07:47:05 51°20.285 2°50.516 344.5 13.7 338 15.4
2010-05-18 07:47:10 51°20.303 2°50.504 344.2 13.7 337 15.7
2010-05-18 07:47:15 51°20.32 2°50.493 344.4 13.7 338 15.9
2010-05-18 07:47:20 51°20.337 2°50.481 344.2 13.7 337 16.1
2010-05-18 07:47:25 51°20.355 2°50.469 344 13.7 337 16.3
2010-05-18 07:47:30 51°20.373 2°50.457 344 13.7 337 16.5
2010-05-18 07:47:35 51°20.39 2°50.446 344.1 13.7 338 17
2010-05-18 07:47:40 51°20.408 2°50.434 344.4 13.7 338 16.9
2010-05-18 07:47:45 51°20.425 2°50.423 344.4 13.7 337 17.1
2010-05-18 07:47:50 51°20.443 2°50.411 344.1 13.7 337 17.6
2010-05-18 07:47:55 51°20.46 2°50.399 344.2 13.7 337 17.7
2010-05-18 07:48:00 51°20.478 2°50.388 344.2 13.7 337 18.1
2010-05-18 07:48:05 51°20.495 2°50.376 344.2 13.7 337 18.4
2010-05-18 07:48:10 51°20.513 2°50.364 344.1 13.7 337 18.6
2010-05-18 07:48:15 51°20.53 2°50.352 344 13.7 336 18.9
2010-05-18 07:48:20 51°20.548 2°50.34 343.7 13.6 338 19.2
2010-05-18 07:48:25 51°20.565 2°50.328 344.1 13.6 337 19.3
2010-05-18 07:48:30 51°20.583 2°50.32 346.3 13.5 342 19.7
2010-05-18 07:48:34 51°20.597 2°50.311 347.9 13.5 340 19.9
2010-05-18 07:48:40 51°20.619 2°50.302 349.6 13.4 345 20
2010-05-18 07:48:45 51°20.637 2°50.293 350.8 13.4 343 20.4
2010-05-18 07:48:50 51°20.655 2°50.287 352.1 13.4 346 20.7
2010-05-18 07:48:55 51°20.673 2°50.279 353 13.5 345 20.9
2010-05-18 07:49:00 51°20.691 2°50.273 353.8 13.4 348 21.1
2010-05-18 07:49:05 51°20.709 2°50.266 354.3 13.5 347 21.4
2010-05-18 07:49:10 51°20.728 2°50.26 355 13.5 349 21.2
2010-05-18 07:49:15 51°20.746 2°50.254 355.2 13.4 348 21.4
2010-05-18 07:49:20 51°20.764 2°50.248 355.7 13.4 348 22
2010-05-18 07:49:25 51°20.782 2°50.241 355.7 13.5 347 21.8
2010-05-18 07:49:30 51°20.8 2°50.235 355.3 13.5 348 22
2010-05-18 07:49:34 51°20.815 2°50.23 355.3 13.5 348 22.2
2010-05-18 07:49:40 51°20.837 2°50.223 355.3 13.4 348 22.4
2010-05-18 07:49:45 51°20.855 2°50.216 355.3 13.5 347 22.4
2010-05-18 07:49:50 51°20.873 2°50.21 355.1 13.4 348 22.5
2010-05-18 07:49:55 51°20.892 2°50.203 355.2 13.5 348 22.6
2010-05-18 07:50:00 51°20.91 2°50.197 355.1 13.5 347 22.7
2010-05-18 07:50:05 51°20.928 2°50.19 355.1 13.5 347 22.7
2010-05-18 07:50:10 51°20.947 2°50.184 355 13.5 348 22.6
2010-05-18 07:50:14 51°20.961 2°50.179 355 13.6 348 22.8
2010-05-18 07:50:20 51°20.984 2°50.172 355.3 13.6 349 22.6
2010-05-18 07:50:25 51°21.002 2°50.166 355.3 13.4 349 22.6
2010-05-18 07:50:30 51°21.02 2°50.165 359.4 13.3 355 22.8
2010-05-18 07:50:35 51°21.039 2°50.163 2.3 13.3 357 22.8
2010-05-18 07:50:40 51°21.057 2°50.164 5.1 13.3 -999 22.5
2010-05-18 07:50:45 51°21.075 2°50.165 7.6 13.3 2 22.7
2010-05-18 07:50:50 51°21.093 2°50.167 9.3 13.2 4 22.7
2010-05-18 07:50:55 51°21.112 2°50.17 11.3 13.2 6 22.5
2010-05-18 07:51:00 51°21.13 2°50.174 12.7 13.2 7 22.7
2010-05-18 07:51:05 51°21.148 2°50.179 15.1 13.2 11 22.5
2010-05-18 07:51:10 51°21.166 2°50.184 16.6 13.2 10 22.3
2010-05-18 07:51:15 51°21.183 2°50.191 18.2 13.1 13 22.7
2010-05-18 07:51:20 51°21.202 2°50.197 19.1 13.2 12 22.5
2010-05-18 07:51:25 51°21.219 2°50.205 20.2 13.1 14 22.5
2010-05-18 07:51:30 51°21.237 2°50.212 21 13.2 15 22.4
2010-05-18 07:51:35 51°21.255 2°50.22 21.7 13.2 15 22.5
2010-05-18 07:51:40 51°21.272 2°50.228 22.3 13.1 16 22.6
2010-05-18 07:51:45 51°21.289 2°50.235 22.4 13.1 15 22.9
2010-05-18 07:51:50 51°21.307 2°50.244 22.6 13.1 16 22.9
2010-05-18 07:51:54 51°21.321 2°50.25 23.1 13.1 17 22.3
2010-05-18 07:52:00 51°21.342 2°50.26 23.1 13.1 16 22.6
2010-05-18 07:52:05 51°21.359 2°50.268 22.8 13.1 16 22.4
2010-05-18 07:52:10 51°21.377 2°50.275 22.4 13.1 15 22.4
2010-05-18 07:52:14 51°21.391 2°50.282 22.1 13.1 15 22.4
2010-05-18 07:52:20 51°21.412 2°50.291 21.9 13.2 15 22.4
2010-05-18 07:52:25 51°21.43 2°50.298 21.8 13.2 15 22.1
2010-05-18 07:52:30 51°21.447 2°50.306 21.7 13.2 15 22.3
2010-05-18 07:52:34 51°21.462 2°50.311 21.4 13.2 14 22.2
2010-05-18 07:52:40 51°21.483 2°50.32 21.2 13.2 14 22.3
2010-05-18 07:52:45 51°21.501 2°50.328 21.3 13.2 15 22.4
2010-05-18 07:52:50 51°21.519 2°50.335 21.2 13.3 14 22.4
2010-05-18 07:52:54 51°21.533 2°50.341 21.2 13.2 15 22.1
2010-05-18 07:53:00 51°21.554 2°50.349 21.5 13.2 14 21.9
2010-05-18 07:53:05 51°21.572 2°50.356 21.1 13.2 14 21.8
2010-05-18 07:53:10 51°21.589 2°50.363 21.1 13.2 14 22.1
2010-05-18 07:53:15 51°21.607 2°50.37 20.7 13.2 14 22
2010-05-18 07:53:20 51°21.625 2°50.377 20.9 13.2 14 21.8
2010-05-18 07:53:25 51°21.643 2°50.384 20.8 13.2 14 22.1
2010-05-18 07:53:30 51°21.66 2°50.391 20.8 13.2 14 22.2
2010-05-18 07:53:35 51°21.678 2°50.398 20.8 13.2 14 22.2
2010-05-18 07:53:40 51°21.696 2°50.405 20.7 13.2 14 22.2
2010-05-18 07:53:45 51°21.714 2°50.411 20.6 13.2 13 22.3
2010-05-18 07:53:50 51°21.732 2°50.418 20.4 13.2 13 22.1
2010-05-18 07:53:54 51°21.746 2°50.423 20.3 13.2 13 22
2010-05-18 07:54:00 51°21.767 2°50.431 20.3 13.2 13 21.8
2010-05-18 07:54:05 51°21.785 2°50.438 20.4 13.2 14 21.8
2010-05-18 07:54:10 51°21.803 2°50.445 21 13.3 14 21.8
2010-05-18 07:54:14 51°21.817 2°50.45 20.3 13.2 12 21.7
2010-05-18 07:54:20 51°21.839 2°50.458 20.2 13.2 13 22
2010-05-18 07:54:25 51°21.857 2°50.465 19.8 13.2 13 21.9
2010-05-18 07:54:30 51°21.875 2°50.471 20.1 13.2 13 21.8
2010-05-18 07:54:34 51°21.889 2°50.477 20 13.2 13 22
2010-05-18 07:54:40 51°21.911 2°50.485 20 13.2 13 22.1
2010-05-18 07:54:45 51°21.929 2°50.49 19.4 13.3 11 22
2010-05-18 07:54:50 51°21.947 2°50.496 18.3 13.3 11 22
2010-05-18 07:54:55 51°21.965 2°50.5 17.5 13.3 9 21.9
2010-05-18 07:55:00 51°21.983 2°50.505 16.8 13.4 9 21.8
2010-05-18 07:55:05 51°22.002 2°50.508 16.1 13.4 8 21.9
2010-05-18 07:55:10 51°22.02 2°50.51 13.4 13.5 3 21.8
2010-05-18 07:55:14 51°22.035 2°50.511 10.5 13.4 2 22.1
2010-05-18 07:55:20 51°22.058 2°50.51 7.7 13.5 359 22.2
2010-05-18 07:55:25 51°22.077 2°50.508 6 13.5 358 22.1
2010-05-18 07:55:30 51°22.095 2°50.506 4.2 13.6 355 22.3
2010-05-18 07:55:35 51°22.114 2°50.504 3 13.6 355 22.3
2010-05-18 07:55:40 51°22.133 2°50.5 1.5 13.7 353 22.3
2010-05-18 07:55:45 51°22.152 2°50.496 0.4 13.7 353 22.4
2010-05-18 07:55:50 51°22.171 2°50.492 359.5 13.7 351 22.3
2010-05-18 07:55:55 51°22.189 2°50.487 358.8 13.7 352 22.3
2010-05-18 07:56:00 51°22.208 2°50.482 358.1 13.7 350 22.5
2010-05-18 07:56:05 51°22.227 2°50.478 357.8 13.8 351 22.6
2010-05-18 07:56:10 51°22.246 2°50.472 357.9 13.8 350 21.7
2010-05-18 07:56:14 51°22.261 2°50.468 357.3 13.6 351 22.1
2010-05-18 07:56:20 51°22.283 2°50.463 357.5 13.7 350 22.7
2010-05-18 07:56:25 51°22.302 2°50.457 357.6 13.6 350 22.3
2010-05-18 07:56:30 51°22.32 2°50.452 356.9 13.6 350 22.1
2010-05-18 07:56:34 51°22.335 2°50.445 354.3 13.7 344 22.7
2010-05-18 07:56:40 51°22.357 2°50.436 353.2 13.7 347 22.6
2010-05-18 07:56:45 51°22.375 2°50.428 351.6 13.8 344 22.4
2010-05-18 07:56:50 51°22.394 2°50.419 350.3 13.8 343 22.3
2010-05-18 07:56:55 51°22.412 2°50.41 349.8 13.8 343 22.1
2010-05-18 07:57:00 51°22.43 2°50.4 348.6 13.8 341 22.2
2010-05-18 07:57:05 51°22.448 2°50.391 348.5 13.8 343 22.1
2010-05-18 07:57:10 51°22.467 2°50.381 348 13.8 341 22.5
2010-05-18 07:57:14 51°22.481 2°50.372 347.7 13.9 340 22.3
2010-05-18 07:57:20 51°22.503 2°50.36 347 13.9 341 22.1
2010-05-18 07:57:25 51°22.521 2°50.348 345 14 336 21.9
2010-05-18 07:57:30 51°22.539 2°50.338 344.8 13.9 341 22
2010-05-18 07:57:35 51°22.556 2°50.324 343.6 14 335 22.1
2010-05-18 07:57:40 51°22.574 2°50.314 343.2 13.8 339 22.2
2010-05-18 07:57:45 51°22.592 2°50.3 342.7 14 334 22.3
2010-05-18 07:57:50 51°22.61 2°50.289 342.6 13.9 338 21.9
2010-05-18 07:57:55 51°22.627 2°50.276 342 14 335 21.2
2010-05-18 07:58:00 51°22.644 2°50.263 340.6 13.9 335 21.3
2010-05-18 07:58:05 51°22.662 2°50.249 339.7 13.9 333 20.8
2010-05-18 07:58:10 51°22.679 2°50.235 339 13.8 334 20.2
2010-05-18 07:58:14 51°22.692 2°50.223 338 14 331 20
2010-05-18 07:58:20 51°22.713 2°50.207 338.1 13.8 333 18.8
2010-05-18 07:58:25 51°22.73 2°50.191 337.3 13.9 329 18.3
2010-05-18 07:58:30 51°22.747 2°50.178 337.6 13.9 334 17.6
2010-05-18 07:58:34 51°22.76 2°50.165 337.7 13.9 330 15.8
2010-05-18 07:58:40 51°22.781 2°50.148 337 13.8 332 13.7
2010-05-18 07:58:45 51°22.797 2°50.133 337.9 13.7 330 15.1
2010-05-18 07:58:50 51°22.814 2°50.118 337.1 13.7 330 15.9
2010-05-18 07:58:55 51°22.831 2°50.105 338.3 13.7 334 16.3
2010-05-18 07:59:00 51°22.848 2°50.089 337.6 13.8 330 16.6
2010-05-18 07:59:05 51°22.865 2°50.076 337.5 13.8 335 16.5
2010-05-18 07:59:10 51°22.882 2°50.061 338 13.9 331 16.1
2010-05-18 07:59:14 51°22.896 2°50.051 338.2 13.9 334 15.9
2010-05-18 07:59:20 51°22.916 2°50.033 337.8 13.9 331 14.9
2010-05-18 07:59:25 51°22.932 2°50.019 337.6 13.4 330 12.6
2010-05-18 07:59:30 51°22.949 2°50.002 335.4 14 328 15
2010-05-18 07:59:34 51°22.964 2°49.995 339.6 14.1 340 15.7
2010-05-18 07:59:40 51°22.982 2°49.974 337.5 13.6 325 16.4
2010-05-18 07:59:45 51°23 2°49.962 335.5 13.7 334 16.6
2010-05-18 07:59:50 51°23.016 2°49.946 337.8 13.9 332 15.9
2010-05-18 07:59:55 51°23.033 2°49.933 337.6 13.5 332 14.1
2010-05-18 08:00:00 51°23.049 2°49.917 336.8 13.6 330 15.3
2010-05-18 08:00:05 51°23.067 2°49.904 337.6 13.9 333 16.2
2010-05-18 08:00:10 51°23.083 2°49.889 338.7 13.5 332 14.5
2010-05-18 08:00:15 51°23.099 2°49.874 336.5 13.7 330 14.8
2010-05-18 08:00:20 51°23.117 2°49.86 338.1 13.9 333 16.1
2010-05-18 08:00:25 51°23.133 2°49.846 338.7 13.7 331 16.3
2010-05-18 08:00:30 51°23.15 2°49.832 337.7 13.6 332 16.8
2010-05-18 08:00:35 51°23.167 2°49.817 338 13.8 332 16.1
2010-05-18 08:00:40 51°23.184 2°49.803 338.7 13.8 333 15.7
2010-05-18 08:00:45 51°23.201 2°49.789 338.6 13.7 332 16.6
2010-05-18 08:00:50 51°23.218 2°49.775 338.3 13.7 333 16.8
2010-05-18 08:00:54 51°23.231 2°49.764 338.9 13.7 333 17.6
2010-05-18 08:01:00 51°23.251 2°49.748 338.8 13.8 333 18.1
2010-05-18 08:01:05 51°23.269 2°49.734 339 13.8 334 18.3
2010-05-18 08:01:10 51°23.286 2°49.72 339 13.8 333 18.1
2010-05-18 08:01:14 51°23.299 2°49.709 339.1 13.8 333 16.7
2010-05-18 08:01:20 51°23.319 2°49.692 338.9 13.7 333 17.2
2010-05-18 08:01:25 51°23.337 2°49.678 338.4 13.7 333 18.2
2010-05-18 08:01:30 51°23.354 2°49.664 338.4 13.8 333 18.7
2010-05-18 08:01:34 51°23.367 2°49.653 338.4 13.8 333 18.9
2010-05-18 08:01:40 51°23.388 2°49.637 338.9 13.9 333 18.9
2010-05-18 08:01:45 51°23.405 2°49.623 338.9 13.8 333 19
2010-05-18 08:01:50 51°23.422 2°49.609 338.9 13.8 333 19.1
2010-05-18 08:01:54 51°23.436 2°49.598 339 13.8 334 19.3
2010-05-18 08:02:00 51°23.456 2°49.582 339 13.8 333 19
2010-05-18 08:02:05 51°23.473 2°49.568 339.1 13.8 334 19.1
2010-05-18 08:02:10 51°23.49 2°49.554 338.8 13.9 333 19.3
2010-05-18 08:02:14 51°23.504 2°49.543 338.8 13.8 333 19.7
2010-05-18 08:02:20 51°23.524 2°49.527 338.7 13.8 333 20.1
2010-05-18 08:02:25 51°23.541 2°49.513 338.7 13.8 333 20.1
2010-05-18 08:02:30 51°23.558 2°49.499 338.5 13.8 332 20.3
2010-05-18 08:02:35 51°23.575 2°49.484 338.5 13.9 333 20.6
2010-05-18 08:02:40 51°23.592 2°49.47 338.6 13.8 333 21
2010-05-18 08:02:45 51°23.609 2°49.457 338.9 13.8 333 21.2
2010-05-18 08:02:50 51°23.626 2°49.442 339 13.8 332 21.8
2010-05-18 08:02:55 51°23.643 2°49.429 339 13.8 333 22
2010-05-18 08:03:00 51°23.66 2°49.415 339.2 13.8 333 22.1
2010-05-18 08:03:05 51°23.677 2°49.401 339 13.8 333 22.1
2010-05-18 08:03:10 51°23.694 2°49.387 339.1 13.7 333 22.4
2010-05-18 08:03:14 51°23.708 2°49.376 339.2 13.7 333 22.7
2010-05-18 08:03:20 51°23.728 2°49.36 339.3 13.7 333 21.8
2010-05-18 08:03:25 51°23.745 2°49.346 339.1 13.8 333 21.9
2010-05-18 08:03:30 51°23.762 2°49.332 339 13.7 333 21.9
2010-05-18 08:03:34 51°23.776 2°49.321 338.5 13.7 332 22.1
2010-05-18 08:03:40 51°23.796 2°49.304 338.6 13.8 333 21.9
2010-05-18 08:03:45 51°23.813 2°49.29 338.9 13.8 332 21.7
2010-05-18 08:03:50 51°23.83 2°49.277 339 13.8 334 21.8
2010-05-18 08:03:54 51°23.844 2°49.266 339.1 13.7 333 21.5
2010-05-18 08:04:00 51°23.864 2°49.249 339.1 13.7 333 21.6
2010-05-18 08:04:05 51°23.881 2°49.235 339 13.7 333 21.5
2010-05-18 08:04:10 51°23.898 2°49.221 338.9 13.8 333 21.3
2010-05-18 08:04:14 51°23.912 2°49.21 338.9 13.7 333 21.8
2010-05-18 08:04:20 51°23.932 2°49.194 339.1 13.7 333 21.9
2010-05-18 08:04:25 51°23.949 2°49.18 339.1 13.7 333 21.8
2010-05-18 08:04:30 51°23.966 2°49.166 339.1 13.8 333 21.8
2010-05-18 08:04:35 51°23.983 2°49.152 339.3 13.8 333 22
2010-05-18 08:04:40 51°24 2°49.138 339.3 13.8 333 21.9
2010-05-18 08:04:45 51°24.017 2°49.124 339.3 13.8 333 21.9
2010-05-18 08:04:50 51°24.034 2°49.11 339.2 13.8 333 21.8
2010-05-18 08:04:55 51°24.051 2°49.096 339 13.8 332 21.4
2010-05-18 08:05:00 51°24.068 2°49.082 338.8 13.7 333 21.7
2010-05-18 08:05:05 51°24.084 2°49.068 338.6 13.7 332 21.9
2010-05-18 08:05:10 51°24.102 2°49.054 339 13.7 334 22.1
2010-05-18 08:05:14 51°24.115 2°49.043 339.4 13.8 333 21.9
2010-05-18 08:05:20 51°24.136 2°49.027 339.4 13.7 333 22.6
2010-05-18 08:05:25 51°24.153 2°49.013 339.4 13.7 333 22.6
2010-05-18 08:05:30 51°24.17 2°48.999 339.5 13.8 333 22.2
2010-05-18 08:05:34 51°24.183 2°48.988 339.3 13.8 333 21.3
2010-05-18 08:05:40 51°24.204 2°48.971 339.2 13.7 333 21.5
2010-05-18 08:05:45 51°24.221 2°48.957 338.9 13.8 333 21.9
2010-05-18 08:05:50 51°24.238 2°48.943 339.1 13.8 333 22.3
2010-05-18 08:05:54 51°24.251 2°48.932 339 13.8 333 22.4
2010-05-18 08:06:00 51°24.272 2°48.916 339.1 13.8 333 22.8
2010-05-18 08:06:05 51°24.289 2°48.902 339.7 13.8 334 22.6
2010-05-18 08:06:10 51°24.306 2°48.888 339.7 13.8 334 22.3
2010-05-18 08:06:14 51°24.32 2°48.878 339.7 13.8 334 22.2
2010-05-18 08:06:20 51°24.34 2°48.861 339.3 13.8 333 22
2010-05-18 08:06:25 51°24.357 2°48.847 339.1 13.8 333 22.1
2010-05-18 08:06:30 51°24.374 2°48.833 339.3 13.7 333 21.2
2010-05-18 08:06:35 51°24.391 2°48.819 339.2 13.8 333 20.2
2010-05-18 08:06:40 51°24.408 2°48.805 338.8 13.8 332 19.1
2010-05-18 08:06:45 51°24.425 2°48.791 338.7 13.8 332 17.5
2010-05-18 08:06:50 51°24.442 2°48.776 338.6 13.8 332 19.1
2010-05-18 08:06:55 51°24.459 2°48.762 338.7 13.8 333 20.2
2010-05-18 08:07:00 51°24.476 2°48.748 338.9 13.9 333 21.2
2010-05-18 08:07:05 51°24.493 2°48.734 339.1 13.9 333 21.3
2010-05-18 08:07:10 51°24.51 2°48.72 339 13.8 332 21.9
2010-05-18 08:07:14 51°24.524 2°48.709 338.8 13.8 334 21.8
2010-05-18 08:07:20 51°24.544 2°48.692 339.1 13.8 333 21.7
2010-05-18 08:07:25 51°24.561 2°48.679 339.5 13.8 334 20.7
2010-05-18 08:07:30 51°24.578 2°48.665 339.8 13.8 333 19.3
2010-05-18 08:07:34 51°24.592 2°48.654 339.5 13.8 333 20.4
2010-05-18 08:07:40 51°24.613 2°48.637 339.2 13.8 333 21.4
2010-05-18 08:07:45 51°24.63 2°48.623 339.2 13.8 333 22.2
2010-05-18 08:07:50 51°24.647 2°48.609 339.5 13.8 333 23.2
2010-05-18 08:07:55 51°24.664 2°48.595 339.5 13.8 333 23.3
2010-05-18 08:08:00 51°24.681 2°48.582 339.3 13.8 333 23.4
2010-05-18 08:08:05 51°24.698 2°48.568 339.4 13.8 333 23.2
2010-05-18 08:08:10 51°24.715 2°48.554 339.1 13.9 333 22.7
2010-05-18 08:08:14 51°24.729 2°48.543 339.4 13.8 334 22.9
2010-05-18 08:08:20 51°24.749 2°48.526 339.6 13.8 333 23
2010-05-18 08:08:25 51°24.766 2°48.513 339.5 13.8 333 22.8
2010-05-18 08:08:30 51°24.784 2°48.499 339.6 13.8 334 21.9
2010-05-18 08:08:34 51°24.797 2°48.488 339.7 13.8 333 22.3
2010-05-18 08:08:40 51°24.818 2°48.472 339.6 13.8 334 23.5
2010-05-18 08:08:45 51°24.835 2°48.458 339.8 13.9 334 23.6
2010-05-18 08:08:50 51°24.852 2°48.444 339.6 13.8 333 24.1
2010-05-18 08:08:55 51°24.87 2°48.431 339.5 13.9 333 24.6
2010-05-18 08:09:00 51°24.887 2°48.417 339.5 13.9 334 25.4
2010-05-18 08:09:05 51°24.904 2°48.403 339.5 13.9 333 25.7
2010-05-18 08:09:10 51°24.921 2°48.39 339.4 13.9 334 25.8
2010-05-18 08:09:14 51°24.935 2°48.378 339.2 13.8 333 26.5
2010-05-18 08:09:20 51°24.956 2°48.362 339.1 13.8 333 26.6
2010-05-18 08:09:25 51°24.973 2°48.348 338.9 13.9 334 26.8
2010-05-18 08:09:30 51°24.99 2°48.335 338.8 13.8 334 26.7
2010-05-18 08:09:34 51°25.004 2°48.328 342.2 13.6 342 27.2
2010-05-18 08:09:40 51°25.026 2°48.317 346.2 13.7 342 27.8
2010-05-18 08:09:45 51°25.044 2°48.309 349 13.7 345 28.2
2010-05-18 08:09:50 51°25.063 2°48.303 351.6 13.5 348 28.3
2010-05-18 08:09:55 51°25.081 2°48.298 353.5 13.5 349 28.8
2010-05-18 08:10:00 51°25.1 2°48.293 355.7 13.5 352 28.9
2010-05-18 08:10:05 51°25.118 2°48.289 356.9 13.5 352 29
2010-05-18 08:10:10 51°25.137 2°48.286 358.3 13.5 355 29
2010-05-18 08:10:14 51°25.152 2°48.283 359.4 13.5 353 29.1
2010-05-18 08:10:20 51°25.174 2°48.281 0.2 13.5 356 29.1
2010-05-18 08:10:25 51°25.193 2°48.278 0.7 13.5 355 29.1
2010-05-18 08:10:30 51°25.212 2°48.276 1.4 13.5 357 29.1
2010-05-18 08:10:34 51°25.227 2°48.274 1.8 13.5 356 28.9
2010-05-18 08:10:40 51°25.249 2°48.273 2.3 13.5 357 28.8
2010-05-18 08:10:45 51°25.268 2°48.27 2.3 13.5 356 28.8
2010-05-18 08:10:50 51°25.287 2°48.269 2.1 13.5 357 28.8
2010-05-18 08:10:55 51°25.305 2°48.267 2 13.5 356 28.5
2010-05-18 08:11:00 51°25.324 2°48.264 1.7 13.6 356 28.1
2010-05-18 08:11:05 51°25.343 2°48.262 1.6 13.5 356 27.7
2010-05-18 08:11:10 51°25.361 2°48.26 1.1 13.5 355 27.8
2010-05-18 08:11:15 51°25.38 2°48.258 1 13.5 356 27.7
2010-05-18 08:11:20 51°25.399 2°48.255 0.8 13.6 355 27.5
2010-05-18 08:11:25 51°25.417 2°48.253 1 13.5 356 27.2
2010-05-18 08:11:30 51°25.436 2°48.251 1.1 13.5 355 26.8
2010-05-18 08:11:35 51°25.455 2°48.248 1.2 13.6 356 26.4
2010-05-18 08:11:40 51°25.473 2°48.246 0.8 13.5 355 26.1
2010-05-18 08:11:45 51°25.492 2°48.243 0.8 13.5 355 25.7
2010-05-18 08:11:50 51°25.511 2°48.24 0.6 13.5 355 24.9
2010-05-18 08:11:54 51°25.526 2°48.238 0.5 13.6 354 23.9
2010-05-18 08:12:00 51°25.548 2°48.235 0.5 13.6 355 23.5
2010-05-18 08:12:05 51°25.567 2°48.231 0.3 13.6 354 23.4
2010-05-18 08:12:10 51°25.586 2°48.229 0.6 13.5 355 23
2010-05-18 08:12:14 51°25.601 2°48.226 0.3 13.5 353 23.1
2010-05-18 08:12:20 51°25.623 2°48.223 0.3 13.5 355 23.2
2010-05-18 08:12:25 51°25.641 2°48.219 0.6 13.5 353 23.1
2010-05-18 08:12:30 51°25.66 2°48.217 0.3 13.4 354 23
2010-05-18 08:12:34 51°25.675 2°48.214 0.8 13.5 354 22.8
2010-05-18 08:12:40 51°25.697 2°48.21 0.6 13.5 354 22.9
2010-05-18 08:12:45 51°25.716 2°48.207 0.3 13.5 354 22.8
2010-05-18 08:12:50 51°25.734 2°48.204 -999 13.5 353 22.8
2010-05-18 08:12:55 51°25.753 2°48.201 -999 13.4 354 22.8
2010-05-18 08:13:00 51°25.771 2°48.197 359.9 13.4 353 23
2010-05-18 08:13:05 51°25.79 2°48.194 -999 13.5 354 22.9
2010-05-18 08:13:10 51°25.808 2°48.191 0.1 13.5 353 22.7
2010-05-18 08:13:15 51°25.827 2°48.188 -999 13.4 354 22.6
2010-05-18 08:13:20 51°25.845 2°48.184 0.1 13.4 354 22.9
2010-05-18 08:13:25 51°25.864 2°48.181 0.1 13.4 353 22.7
2010-05-18 08:13:30 51°25.883 2°48.178 0.1 13.5 354 22.7
2010-05-18 08:13:35 51°25.901 2°48.174 0.1 13.5 353 22.6
2010-05-18 08:13:40 51°25.919 2°48.171 -999 13.5 354 22.7
2010-05-18 08:13:45 51°25.938 2°48.168 359.5 13.5 353 22.5
2010-05-18 08:13:50 51°25.956 2°48.165 359.8 13.4 354 22.6
2010-05-18 08:13:55 51°25.975 2°48.161 359.8 13.5 353 21.5
2010-05-18 08:14:00 51°25.994 2°48.158 359.5 13.5 354 22.1
2010-05-18 08:14:05 51°26.012 2°48.154 359.9 13.5 354 22.4
2010-05-18 08:14:10 51°26.031 2°48.151 0.1 13.5 354 22.1
2010-05-18 08:14:14 51°26.045 2°48.149 0.1 13.5 354 19.3
2010-05-18 08:14:20 51°26.068 2°48.144 359.6 13.5 353 22
2010-05-18 08:14:25 51°26.086 2°48.141 359.7 13.5 354 22.7
2010-05-18 08:14:30 51°26.105 2°48.138 359.8 13.5 353 22.1
2010-05-18 08:14:34 51°26.12 2°48.135 359.6 13.5 353 21
2010-05-18 08:14:40 51°26.142 2°48.131 359.7 13.4 353 17.2
2010-05-18 08:14:45 51°26.16 2°48.127 359.8 13.5 353 19.4
2010-05-18 08:14:50 51°26.179 2°48.124 359.7 13.5 353 20.2
2010-05-18 08:14:55 51°26.198 2°48.12 359.6 13.5 354 20.3
2010-05-18 08:15:00 51°26.216 2°48.117 -999 13.5 354 20.7
2010-05-18 08:15:05 51°26.235 2°48.114 359.8 13.5 354 21.1
2010-05-18 08:15:10 51°26.254 2°48.111 359.8 13.5 354 20.7
2010-05-18 08:15:15 51°26.272 2°48.107 359.4 13.6 353 20.4
2010-05-18 08:15:20 51°26.291 2°48.104 359.5 13.5 355 20
2010-05-18 08:15:25 51°26.31 2°48.1 359.6 13.5 353 17.8
2010-05-18 08:15:30 51°26.328 2°48.097 359.4 13.5 354 18.7
2010-05-18 08:15:35 51°26.347 2°48.094 359.4 13.5 353 19.7
2010-05-18 08:15:40 51°26.366 2°48.091 359.5 13.6 354 20.1
2010-05-18 08:15:45 51°26.384 2°48.087 359.7 13.6 353 20.7
2010-05-18 08:15:50 51°26.403 2°48.084 359.5 13.6 354 21
2010-05-18 08:15:55 51°26.422 2°48.081 359.5 13.6 354 21.3
2010-05-18 08:16:00 51°26.44 2°48.077 359.6 13.6 354 21.4
2010-05-18 08:16:05 51°26.459 2°48.074 359.5 13.6 354 21.6
2010-05-18 08:16:10 51°26.478 2°48.071 359.6 13.5 354 21.7
2010-05-18 08:16:15 51°26.497 2°48.068 359.7 13.6 354 22
2010-05-18 08:16:20 51°26.515 2°48.065 359.7 13.6 354 21.9
2010-05-18 08:16:25 51°26.534 2°48.061 359.2 13.5 353 21.7
2010-05-18 08:16:30 51°26.553 2°48.058 359.1 13.5 354 22.2
2010-05-18 08:16:34 51°26.568 2°48.056 359.1 13.5 353 21.1
2010-05-18 08:16:40 51°26.59 2°48.052 359.1 13.6 354 22.3
2010-05-18 08:16:45 51°26.609 2°48.049 359.2 13.5 354 22.5
2010-05-18 08:16:50 51°26.627 2°48.046 359.3 13.5 354 22.6
2010-05-18 08:16:55 51°26.646 2°48.042 359.3 13.5 354 21.9
2010-05-18 08:17:00 51°26.665 2°48.039 359.5 13.6 354 21.3
2010-05-18 08:17:05 51°26.683 2°48.036 359.4 13.5 354 22.5
2010-05-18 08:17:10 51°26.702 2°48.033 359.4 13.5 354 23
2010-05-18 08:17:14 51°26.717 2°48.031 359.4 13.5 354 23.4
2010-05-18 08:17:20 51°26.739 2°48.028 359.5 13.5 355 23.3
2010-05-18 08:17:25 51°26.758 2°48.025 359.4 13.5 354 23.2
2010-05-18 08:17:30 51°26.776 2°48.021 359.4 13.5 354 23.3
2010-05-18 08:17:35 51°26.795 2°48.018 359.2 13.5 354 24
2010-05-18 08:17:40 51°26.814 2°48.015 359.4 13.6 354 23.7
2010-05-18 08:17:45 51°26.832 2°48.012 359.2 13.6 354 22.9
2010-05-18 08:17:50 51°26.851 2°48.009 359.3 13.6 354 21.6
2010-05-18 08:17:55 51°26.87 2°48.006 359.3 13.5 354 23.1
2010-05-18 08:18:00 51°26.889 2°48.004 359.4 13.5 354 23.9
2010-05-18 08:18:05 51°26.907 2°48.001 359.4 13.6 355 24.8
2010-05-18 08:18:10 51°26.926 2°47.998 359.5 13.6 355 24.8
2010-05-18 08:18:15 51°26.945 2°47.994 359.4 13.5 354 24.5
2010-05-18 08:18:20 51°26.963 2°47.992 359.4 13.5 355 24.5
2010-05-18 08:18:25 51°26.982 2°47.989 359.5 13.6 354 25.1
2010-05-18 08:18:30 51°27.001 2°47.986 359.4 13.6 354 23.3
2010-05-18 08:18:34 51°27.016 2°47.984 359.5 13.6 355 25.2
2010-05-18 08:18:40 51°27.038 2°47.981 359.4 13.5 355 25.3
2010-05-18 08:18:45 51°27.057 2°47.978 359.2 13.5 354 25.3
2010-05-18 08:18:50 51°27.075 2°47.975 359.1 13.6 355 25.3
2010-05-18 08:18:55 51°27.094 2°47.972 359.2 13.6 355 25.3
2010-05-18 08:19:00 51°27.113 2°47.97 359.4 13.6 355 25
2010-05-18 08:19:05 51°27.132 2°47.967 359.6 13.6 355 25.2
2010-05-18 08:19:10 51°27.15 2°47.965 359.5 13.6 355 24.8
2010-05-18 08:19:15 51°27.169 2°47.962 359.4 13.6 355 25.8
2010-05-18 08:19:20 51°27.188 2°47.959 359.4 13.6 355 25.2
2010-05-18 08:19:25 51°27.207 2°47.956 359.3 13.6 355 26.3
2010-05-18 08:19:30 51°27.225 2°47.954 359.4 13.6 356 26.3
2010-05-18 08:19:35 51°27.244 2°47.951 359.4 13.7 355 25.2
2010-05-18 08:19:40 51°27.263 2°47.949 359.4 13.6 355 25
2010-05-18 08:19:45 51°27.282 2°47.946 359.1 13.6 354 23.7
2010-05-18 08:19:50 51°27.301 2°47.943 359.4 13.6 356 24.2
2010-05-18 08:19:55 51°27.319 2°47.94 359.3 13.6 354 25.9
2010-05-18 08:20:00 51°27.338 2°47.938 359.3 13.6 356 25.8
2010-05-18 08:20:05 51°27.357 2°47.935 359.4 13.5 354 25.7
2010-05-18 08:20:10 51°27.376 2°47.933 359.4 13.6 355 26.1
2010-05-18 08:20:15 51°27.394 2°47.93 359.4 13.6 354 26.1
2010-05-18 08:20:20 51°27.413 2°47.927 359 13.6 355 26
2010-05-18 08:20:25 51°27.432 2°47.924 359.3 13.6 355 26.1
2010-05-18 08:20:30 51°27.45 2°47.921 359.4 13.5 353 25.8
2010-05-18 08:20:35 51°27.469 2°47.917 358.9 13.5 354 25.9
2010-05-18 08:20:40 51°27.487 2°47.913 358.5 13.4 352 26
2010-05-18 08:20:45 51°27.506 2°47.91 358.2 13.4 354 26.1
2010-05-18 08:20:50 51°27.524 2°47.906 359.2 13.4 354 26.2
2010-05-18 08:20:55 51°27.543 2°47.903 358.8 13.4 353 25.9
2010-05-18 08:21:00 51°27.561 2°47.9 359.2 13.4 354 25.8
2010-05-18 08:21:05 51°27.579 2°47.896 359.3 13.4 353 25.8
2010-05-18 08:21:10 51°27.598 2°47.893 359.4 13.3 354 25.7
2010-05-18 08:21:14 51°27.612 2°47.891 359.7 13.4 354 25.6
2010-05-18 08:21:20 51°27.635 2°47.887 359.4 13.4 354 25.5
2010-05-18 08:21:25 51°27.653 2°47.884 359.6 13.4 354 25.4
2010-05-18 08:21:30 51°27.672 2°47.88 359.3 13.4 353 25.5
2010-05-18 08:21:34 51°27.686 2°47.878 359.3 13.4 354 25.8
2010-05-18 08:21:40 51°27.708 2°47.874 359.7 13.4 354 26
2010-05-18 08:21:45 51°27.727 2°47.871 359.7 13.4 354 26.1
2010-05-18 08:21:50 51°27.745 2°47.868 359.4 13.4 354 26.2
2010-05-18 08:21:55 51°27.764 2°47.865 359.5 13.4 354 26.6
2010-05-18 08:22:00 51°27.782 2°47.861 359.1 13.4 354 26.9
2010-05-18 08:22:05 51°27.801 2°47.858 359.3 13.4 354 26.9
2010-05-18 08:22:10 51°27.819 2°47.855 359.4 13.4 354 26.8
2010-05-18 08:22:14 51°27.834 2°47.853 359.6 13.4 354 26.5
2010-05-18 08:22:20 51°27.856 2°47.849 359.4 13.3 354 27.3
2010-05-18 08:22:25 51°27.874 2°47.846 359.5 13.3 354 27.8
2010-05-18 08:22:30 51°27.893 2°47.843 359.6 13.3 354 28
2010-05-18 08:22:35 51°27.911 2°47.84 359.9 13.3 355 28.6
2010-05-18 08:22:40 51°27.929 2°47.837 359.7 13.4 354 28.2
2010-05-18 08:22:45 51°27.948 2°47.834 359.4 13.4 354 27.6
2010-05-18 08:22:50 51°27.966 2°47.831 359.4 13.5 354 28.4
2010-05-18 08:22:54 51°27.981 2°47.828 359.1 13.4 354 28.2
2010-05-18 08:23:00 51°28.003 2°47.825 359.3 13.3 354 28.8
2010-05-18 08:23:05 51°28.022 2°47.822 359.4 13.3 355 29.4
2010-05-18 08:23:10 51°28.04 2°47.819 359.8 13.4 354 29.4
2010-05-18 08:23:14 51°28.055 2°47.817 359.7 13.4 355 29
2010-05-18 08:23:20 51°28.077 2°47.813 359.8 13.4 355 28.9
2010-05-18 08:23:25 51°28.096 2°47.811 359.9 13.4 354 28.8
2010-05-18 08:23:30 51°28.114 2°47.807 359.4 13.5 354 28.6
2010-05-18 08:23:34 51°28.129 2°47.805 359.6 13.4 355 29.6
2010-05-18 08:23:40 51°28.151 2°47.801 359.2 13.4 353 30.8
2010-05-18 08:23:45 51°28.17 2°47.798 359.1 13.5 355 31.4
2010-05-18 08:23:50 51°28.188 2°47.795 359.3 13.5 354 31.2
2010-05-18 08:23:55 51°28.207 2°47.792 359.5 13.5 355 31.4
2010-05-18 08:24:00 51°28.225 2°47.789 359.3 13.5 353 31.9
2010-05-18 08:24:05 51°28.244 2°47.787 359.4 13.5 355 31.3
2010-05-18 08:24:10 51°28.263 2°47.783 359.4 13.5 354 30.9
2010-05-18 08:24:15 51°28.281 2°47.78 359.2 13.5 354 31.6
2010-05-18 08:24:20 51°28.3 2°47.777 359.1 13.6 354 31.4
2010-05-18 08:24:25 51°28.319 2°47.774 359 13.4 354 31
2010-05-18 08:24:30 51°28.337 2°47.771 358.8 13.4 354 30.9
2010-05-18 08:24:35 51°28.356 2°47.768 358.9 13.5 354 30.7
2010-05-18 08:24:40 51°28.374 2°47.765 359.4 13.5 354 30.7
2010-05-18 08:24:45 51°28.393 2°47.762 359.5 13.5 354 30.3
2010-05-18 08:24:50 51°28.412 2°47.759 359.6 13.5 355 30.4
2010-05-18 08:24:55 51°28.43 2°47.756 359.3 13.4 354 29.9
2010-05-18 08:25:00 51°28.449 2°47.754 359.5 13.5 355 29.9
2010-05-18 08:25:05 51°28.467 2°47.75 359.4 13.5 353 29.4
2010-05-18 08:25:10 51°28.486 2°47.748 359.2 13.5 355 29.4
2010-05-18 08:25:15 51°28.504 2°47.744 359.6 13.4 354 29.1
2010-05-18 08:25:20 51°28.523 2°47.742 359.3 13.4 355 29.1
2010-05-18 08:25:25 51°28.542 2°47.739 359.6 13.4 354 29.7
2010-05-18 08:25:30 51°28.56 2°47.736 359.4 13.4 354 29.3
2010-05-18 08:25:34 51°28.575 2°47.733 359.5 13.4 355 28.4
2010-05-18 08:25:40 51°28.597 2°47.729 359 13.4 353 29.2
2010-05-18 08:25:45 51°28.616 2°47.727 359 13.4 355 29.4
2010-05-18 08:25:50 51°28.634 2°47.723 359.2 13.5 354 28.9
2010-05-18 08:25:55 51°28.653 2°47.721 359.3 13.4 355 28.4
2010-05-18 08:26:00 51°28.671 2°47.717 359.6 13.4 354 28.4
2010-05-18 08:26:05 51°28.69 2°47.715 359.4 13.5 355 28.5
2010-05-18 08:26:10 51°28.708 2°47.711 359.5 13.5 354 27.7
2010-05-18 08:26:14 51°28.723 2°47.709 359.3 13.5 355 27.2
2010-05-18 08:26:20 51°28.745 2°47.705 359.2 13.5 354 26.9
2010-05-18 08:26:25 51°28.764 2°47.703 359 13.5 354 26.6
2010-05-18 08:26:46 51°28.842 2°47.691 359.6 13.4 355 26.4
2010-05-18 08:27:16 51°28.953 2°47.673 359.1 13.4 355 25.8
2010-05-18 08:27:35 51°29.023 2°47.661 359 13.5 353 26.2
2010-05-18 08:29:04 51°29.354 2°47.611 359.9 13.6 356 25.4
2010-05-18 08:29:18 51°29.406 2°47.604 359.8 13.5 355 19.6
2010-05-18 08:29:23 51°29.425 2°47.601 359.8 13.4 355 21.9
2010-05-18 08:29:28 51°29.443 2°47.598 359.2 13.3 355 23.6
2010-05-18 08:29:33 51°29.461 2°47.596 359.7 13.4 355 24.4
2010-05-18 08:29:38 51°29.48 2°47.593 359.3 13.4 354 23.6
2010-05-18 08:29:42 51°29.495 2°47.591 359.4 13.4 355 20.7
2010-05-18 08:29:48 51°29.517 2°47.588 359.6 13.4 355 23
2010-05-18 08:29:53 51°29.536 2°47.586 359.8 13.4 356 24.1
2010-05-18 08:29:58 51°29.554 2°47.583 359.1 13.4 354 22.4
2010-05-18 08:30:03 51°29.573 2°47.58 358.6 13.4 355 22.2
2010-05-18 08:30:08 51°29.591 2°47.576 357.8 13.4 353 23.6
2010-05-18 08:30:13 51°29.61 2°47.574 357.8 13.4 355 24.3
2010-05-18 08:30:18 51°29.628 2°47.569 357.2 13.5 352 22.6
2010-05-18 08:30:22 51°29.643 2°47.567 357.2 13.5 354 19.6
2010-05-18 08:30:28 51°29.665 2°47.561 356.5 13.5 351 22.6
2010-05-18 08:30:33 51°29.683 2°47.559 356.5 13.3 354 24
2010-05-18 08:30:38 51°29.702 2°47.555 356.8 13.5 352 24.7
2010-05-18 08:30:42 51°29.717 2°47.552 357.2 13.4 354 23.9
2010-05-18 08:30:48 51°29.739 2°47.548 357.2 13.5 353 20.8
2010-05-18 08:30:53 51°29.758 2°47.545 357.3 13.4 354 22.5
2010-05-18 08:30:58 51°29.776 2°47.541 357.2 13.4 353 24.6
2010-05-18 08:31:03 51°29.795 2°47.538 357.1 13.4 354 25.1
2010-05-18 08:31:08 51°29.813 2°47.534 357.2 13.5 353 22.2
2010-05-18 08:31:13 51°29.832 2°47.531 356.7 13.5 353 23
2010-05-18 08:31:18 51°29.85 2°47.527 356.5 13.4 353 24.7
2010-05-18 08:31:22 51°29.865 2°47.524 356.8 13.4 353 24.6
2010-05-18 08:31:28 51°29.888 2°47.52 357.2 13.5 353 23.2
2010-05-18 08:31:33 51°29.906 2°47.517 356.9 13.4 353 24.1
2010-05-18 08:31:38 51°29.925 2°47.514 357.1 13.4 354 22.1
2010-05-18 08:31:42 51°29.939 2°47.51 357.1 13.4 353 23.5
2010-05-18 08:31:48 51°29.962 2°47.507 357.2 13.4 354 24.9
2010-05-18 08:31:53 51°29.98 2°47.503 356.9 13.4 354 25.3
2010-05-18 08:31:58 51°29.999 2°47.5 357.4 13.4 354 25
2010-05-18 08:32:02 51°30.013 2°47.497 357.3 13.4 353 21.9
2010-05-18 08:32:08 51°30.036 2°47.493 357 13.4 353 23
2010-05-18 08:32:13 51°30.054 2°47.489 356.5 13.4 352 24.4
2010-05-18 08:32:18 51°30.072 2°47.486 357.1 13.4 354 25.2
2010-05-18 08:32:22 51°30.087 2°47.483 357.2 13.4 353 25.5
2010-05-18 08:32:28 51°30.109 2°47.48 357.2 13.3 354 25
2010-05-18 08:32:33 51°30.128 2°47.475 357.5 13.4 352 24.5
2010-05-18 08:32:38 51°30.146 2°47.472 357.2 13.4 353 22.3
2010-05-18 08:32:42 51°30.161 2°47.468 356.5 13.4 351 24.8
2010-05-18 08:32:48 51°30.183 2°47.463 356.5 13.3 352 25.8
2010-05-18 08:32:53 51°30.201 2°47.459 356.6 13.3 352 25.1
2010-05-18 08:32:58 51°30.219 2°47.455 356.7 13.3 352 20.3
2010-05-18 08:33:03 51°30.237 2°47.451 356.6 13.1 352 23.5
2010-05-18 08:33:08 51°30.256 2°47.448 357.1 13.2 353 24.6
2010-05-18 08:33:13 51°30.274 2°47.444 357.5 13.2 352 24
2010-05-18 08:33:18 51°30.292 2°47.44 357.3 13.2 353 22.8
2010-05-18 08:33:23 51°30.31 2°47.436 357.3 13.3 352 24.3
2010-05-18 08:33:28 51°30.328 2°47.433 357.2 13.1 353 23.7
2010-05-18 08:33:33 51°30.346 2°47.428 357 13.1 352 24.8
2010-05-18 08:33:38 51°30.364 2°47.425 357.2 13.1 353 25.2
2010-05-18 08:33:42 51°30.378 2°47.421 357 13 352 26.7
2010-05-18 08:33:48 51°30.4 2°47.417 357.2 13.1 353 27.2
2010-05-18 08:33:53 51°30.418 2°47.414 357.3 13.1 353 27.1
2010-05-18 08:33:58 51°30.436 2°47.41 357.6 13.1 353 26.9
2010-05-18 08:34:02 51°30.45 2°47.407 357.4 13.1 352 25
2010-05-18 08:34:08 51°30.472 2°47.403 357.5 13 353 24.9
2010-05-18 08:34:13 51°30.49 2°47.398 356.5 13.1 351 25.6
2010-05-18 08:34:18 51°30.508 2°47.395 357.6 13.1 354 25.5
2010-05-18 08:34:23 51°30.525 2°47.391 357.1 13.1 351 26.4
2010-05-18 08:34:28 51°30.544 2°47.388 357.2 13 354 27.4
2010-05-18 08:34:33 51°30.561 2°47.383 357.2 13.1 351 27.6
2010-05-18 08:34:38 51°30.579 2°47.38 357.2 13 353 26.9
2010-05-18 08:34:43 51°30.597 2°47.376 357 13.1 351 26.1
2010-05-18 08:34:48 51°30.615 2°47.372 357 13 353 27
2010-05-18 08:34:53 51°30.633 2°47.369 357.5 13.1 353 27.8
2010-05-18 08:34:58 51°30.651 2°47.365 357.6 13.1 352 26.3
2010-05-18 08:35:02 51°30.666 2°47.362 357.3 13 353 27.5
2010-05-18 08:35:08 51°30.687 2°47.358 357.8 13.1 353 26.3
2010-05-18 08:35:13 51°30.705 2°47.354 357.3 13.1 353 27
2010-05-18 08:35:18 51°30.724 2°47.35 357.3 13.1 353 28.2
2010-05-18 08:35:22 51°30.738 2°47.347 357.2 13.1 352 27.2
2010-05-18 08:35:28 51°30.76 2°47.343 357 13.1 353 26.7
2010-05-18 08:35:33 51°30.778 2°47.339 357.2 13.1 352 27.2
2010-05-18 08:35:38 51°30.796 2°47.335 356.7 13.1 352 28.5
2010-05-18 08:35:43 51°30.814 2°47.331 357.3 13.1 353 28.1
2010-05-18 08:35:48 51°30.832 2°47.327 357.2 13.1 352 26
2010-05-18 08:35:53 51°30.85 2°47.323 356.9 13.1 353 26.8
2010-05-18 08:35:58 51°30.868 2°47.32 357.2 13.1 353 28.1
2010-05-18 08:36:02 51°30.882 2°47.316 357 13.2 352 27.7
2010-05-18 08:36:08 51°30.904 2°47.313 357.2 13.1 353 27.6
2010-05-18 08:36:13 51°30.922 2°47.309 357.6 13.1 353 27.3